sensor_id;sensor_type;location;lat;lon;timestamp;pressure;altitude;pressure_sealevel;temperature;humidity
16461;BME280;8341;42.048;24.650;2022-08-02T00:02:18;96963.41;;;23.11;49.25
16461;BME280;8341;42.048;24.650;2022-08-02T00:04:46;96958.19;;;23.15;49.61
16461;BME280;8341;42.048;24.650;2022-08-02T00:07:13;96957.16;;;23.02;49.85
16461;BME280;8341;42.048;24.650;2022-08-02T00:09:41;96965.63;;;23.12;49.57
16461;BME280;8341;42.048;24.650;2022-08-02T00:12:09;96966.03;;;23.01;49.78
16461;BME280;8341;42.048;24.650;2022-08-02T00:14:36;96968.28;;;23.02;49.73
16461;BME280;8341;42.048;24.650;2022-08-02T00:17:04;96975.34;;;22.88;49.92
16461;BME280;8341;42.048;24.650;2022-08-02T00:19:31;96968.38;;;22.80;50.30
16461;BME280;8341;42.048;24.650;2022-08-02T00:21:59;96966.31;;;22.80;50.17
16461;BME280;8341;42.048;24.650;2022-08-02T00:24:26;96968.31;;;22.95;49.99
16461;BME280;8341;42.048;24.650;2022-08-02T00:26:52;96965.75;;;22.82;50.20
16461;BME280;8341;42.048;24.650;2022-08-02T00:29:19;96968.88;;;22.86;50.10
16461;BME280;8341;42.048;24.650;2022-08-02T00:31:46;96964.47;;;22.75;50.27
16461;BME280;8341;42.048;24.650;2022-08-02T00:34:13;96964.84;;;22.79;50.24
16461;BME280;8341;42.048;24.650;2022-08-02T00:36:40;96962.81;;;22.80;50.35
16461;BME280;8341;42.048;24.650;2022-08-02T00:39:08;96956.88;;;22.76;50.16
16461;BME280;8341;42.048;24.650;2022-08-02T00:41:44;96955.78;;;22.71;50.48
16461;BME280;8341;42.048;24.650;2022-08-02T00:44:11;96955.44;;;22.67;50.54
16461;BME280;8341;42.048;24.650;2022-08-02T00:46:38;96956.72;;;22.66;50.72
16461;BME280;8341;42.048;24.650;2022-08-02T00:49:05;96958.38;;;22.62;50.87
16461;BME280;8341;42.048;24.650;2022-08-02T00:51:31;96959.66;;;22.68;50.70
16461;BME280;8341;42.048;24.650;2022-08-02T00:53:58;96947.63;;;22.66;50.89
16461;BME280;8341;42.048;24.650;2022-08-02T00:56:27;96946.34;;;22.67;50.67
16461;BME280;8341;42.048;24.650;2022-08-02T00:58:54;96955.97;;;22.58;51.05
16461;BME280;8341;42.048;24.650;2022-08-02T01:01:20;96958.94;;;22.53;51.09
16461;BME280;8341;42.048;24.650;2022-08-02T01:04:03;96953.38;;;22.53;51.18
16461;BME280;8341;42.048;24.650;2022-08-02T01:06:30;96948.41;;;22.43;51.39
16461;BME280;8341;42.048;24.650;2022-08-02T01:08:57;96949.16;;;22.44;51.33
16461;BME280;8341;42.048;24.650;2022-08-02T01:11:24;96946.72;;;22.48;50.97
16461;BME280;8341;42.048;24.650;2022-08-02T01:13:54;96947.81;;;22.53;50.89
16461;BME280;8341;42.048;24.650;2022-08-02T01:16:25;96946.91;;;22.50;50.84
16461;BME280;8341;42.048;24.650;2022-08-02T01:18:58;96949.13;;;22.59;51.02
16461;BME280;8341;42.048;24.650;2022-08-02T01:21:41;96951.31;;;22.61;50.64
16461;BME280;8341;42.048;24.650;2022-08-02T01:24:35;96952.47;;;22.50;50.47
16461;BME280;8341;42.048;24.650;2022-08-02T01:27:18;96948.94;;;22.50;50.61
16461;BME280;8341;42.048;24.650;2022-08-02T01:29:52;96946.16;;;22.50;50.58
16461;BME280;8341;42.048;24.650;2022-08-02T01:32:24;96943.41;;;22.42;50.53
16461;BME280;8341;42.048;24.650;2022-08-02T01:34:56;96936.53;;;22.51;50.28
16461;BME280;8341;42.048;24.650;2022-08-02T01:37:28;96941.75;;;22.47;50.31
16461;BME280;8341;42.048;24.650;2022-08-02T01:40:02;96939.50;;;22.45;50.23
16461;BME280;8341;42.048;24.650;2022-08-02T01:42:31;96937.31;;;22.36;50.65
16461;BME280;8341;42.048;24.650;2022-08-02T01:45:00;96939.16;;;22.41;50.12
16461;BME280;8341;42.048;24.650;2022-08-02T01:47:30;96925.63;;;22.45;49.93
16461;BME280;8341;42.048;24.650;2022-08-02T01:50:00;96923.44;;;22.36;50.05
16461;BME280;8341;42.048;24.650;2022-08-02T01:52:30;96925.09;;;22.39;49.97
16461;BME280;8341;42.048;24.650;2022-08-02T01:55:02;96922.88;;;22.30;50.17
16461;BME280;8341;42.048;24.650;2022-08-02T01:57:33;96914.72;;;22.32;50.37
16461;BME280;8341;42.048;24.650;2022-08-02T02:00:04;96924.69;;;22.42;49.98
16461;BME280;8341;42.048;24.650;2022-08-02T02:02:33;96923.94;;;22.50;49.89
16461;BME280;8341;42.048;24.650;2022-08-02T02:05:02;96919.72;;;22.41;49.43
16461;BME280;8341;42.048;24.650;2022-08-02T02:07:33;96914.53;;;22.37;49.63
16461;BME280;8341;42.048;24.650;2022-08-02T02:10:01;96911.91;;;22.47;49.72
16461;BME280;8341;42.048;24.650;2022-08-02T02:12:30;96911.72;;;22.45;49.51
16461;BME280;8341;42.048;24.650;2022-08-02T02:14:59;96908.03;;;22.42;49.56
16461;BME280;8341;42.048;24.650;2022-08-02T02:17:29;96916.94;;;22.33;49.77
16461;BME280;8341;42.048;24.650;2022-08-02T02:19:57;96908.94;;;22.45;49.03
16461;BME280;8341;42.048;24.650;2022-08-02T02:22:25;96911.00;;;22.37;50.08
16461;BME280;8341;42.048;24.650;2022-08-02T02:24:52;96906.94;;;22.38;49.06
16461;BME280;8341;42.048;24.650;2022-08-02T02:27:20;96907.66;;;22.46;49.18
16461;BME280;8341;42.048;24.650;2022-08-02T02:29:50;96916.56;;;22.37;49.04
16461;BME280;8341;42.048;24.650;2022-08-02T02:32:17;96909.13;;;22.47;48.86
16461;BME280;8341;42.048;24.650;2022-08-02T02:34:48;96906.56;;;22.41;48.51
16461;BME280;8341;42.048;24.650;2022-08-02T02:37:21;96905.63;;;22.47;48.53
16461;BME280;8341;42.048;24.650;2022-08-02T02:39:50;96905.03;;;22.48;48.56
16461;BME280;8341;42.048;24.650;2022-08-02T02:42:22;96901.31;;;22.53;48.30
16461;BME280;8341;42.048;24.650;2022-08-02T02:44:50;96908.03;;;22.35;48.62
16461;BME280;8341;42.048;24.650;2022-08-02T02:47:18;96900.09;;;22.39;48.71
16461;BME280;8341;42.048;24.650;2022-08-02T02:49:47;96905.41;;;22.44;48.71
16461;BME280;8341;42.048;24.650;2022-08-02T02:52:16;96905.59;;;22.54;48.29
16461;BME280;8341;42.048;24.650;2022-08-02T02:54:47;96908.94;;;22.45;48.39
16461;BME280;8341;42.048;24.650;2022-08-02T02:57:14;96904.88;;;22.46;48.31
16461;BME280;8341;42.048;24.650;2022-08-02T02:59:43;96910.03;;;22.50;47.94
16461;BME280;8341;42.048;24.650;2022-08-02T03:02:10;96913.56;;;22.50;48.08
16461;BME280;8341;42.048;24.650;2022-08-02T03:04:39;96914.09;;;22.56;48.09
16461;BME280;8341;42.048;24.650;2022-08-02T03:07:08;96925.03;;;22.54;48.13
16461;BME280;8341;42.048;24.650;2022-08-02T03:09:35;96916.56;;;22.37;47.79
16461;BME280;8341;42.048;24.650;2022-08-02T03:12:03;96913.97;;;22.47;48.47
16461;BME280;8341;42.048;24.650;2022-08-02T03:14:30;96922.06;;;22.52;47.29
16461;BME280;8341;42.048;24.650;2022-08-02T03:16:57;96913.34;;;22.56;47.54
16461;BME280;8341;42.048;24.650;2022-08-02T03:19:24;96915.97;;;22.54;48.12
16461;BME280;8341;42.048;24.650;2022-08-02T03:21:51;96913.59;;;22.42;47.14
16461;BME280;8341;42.048;24.650;2022-08-02T03:24:19;96923.41;;;22.43;47.13
16461;BME280;8341;42.048;24.650;2022-08-02T03:26:46;96921.75;;;22.33;47.98
16461;BME280;8341;42.048;24.650;2022-08-02T03:29:13;96916.41;;;22.27;46.66
16461;BME280;8341;42.048;24.650;2022-08-02T03:31:40;96916.59;;;22.14;47.58
16461;BME280;8341;42.048;24.650;2022-08-02T03:34:09;96917.69;;;22.19;48.14
16461;BME280;8341;42.048;24.650;2022-08-02T03:36:36;96927.34;;;22.18;48.18
16461;BME280;8341;42.048;24.650;2022-08-02T03:39:05;96926.44;;;22.08;48.22
16461;BME280;8341;42.048;24.650;2022-08-02T03:41:34;96927.91;;;22.09;48.30
16461;BME280;8341;42.048;24.650;2022-08-02T03:44:03;96932.91;;;22.10;47.82
16461;BME280;8341;42.048;24.650;2022-08-02T03:46:31;96928.47;;;22.00;48.03
16461;BME280;8341;42.048;24.650;2022-08-02T03:48:59;96932.91;;;22.10;47.98
16461;BME280;8341;42.048;24.650;2022-08-02T03:51:27;96938.47;;;22.18;48.63
16461;BME280;8341;42.048;24.650;2022-08-02T03:53:54;96941.41;;;22.12;47.91
16461;BME280;8341;42.048;24.650;2022-08-02T03:56:22;96953.63;;;22.17;47.09
16461;BME280;8341;42.048;24.650;2022-08-02T03:59:04;96946.22;;;22.12;47.20
16461;BME280;8341;42.048;24.650;2022-08-02T04:01:31;96951.59;;;22.10;47.36
16461;BME280;8341;42.048;24.650;2022-08-02T04:03:58;96951.41;;;22.23;47.56
16461;BME280;8341;42.048;24.650;2022-08-02T04:06:24;96956.22;;;22.30;47.03
16461;BME280;8341;42.048;24.650;2022-08-02T04:08:51;96950.13;;;22.09;46.53
16461;BME280;8341;42.048;24.650;2022-08-02T04:11:18;96950.50;;;22.13;47.43
16461;BME280;8341;42.048;24.650;2022-08-02T04:13:59;96950.84;;;22.17;46.96
16461;BME280;8341;42.048;24.650;2022-08-02T04:16:33;96963.28;;;22.23;46.63
16461;BME280;8341;42.048;24.650;2022-08-02T04:19:04;96954.75;;;22.29;47.30
16461;BME280;8341;42.048;24.650;2022-08-02T04:21:36;96953.63;;;22.17;47.79
16461;BME280;8341;42.048;24.650;2022-08-02T04:24:05;96961.78;;;22.30;47.58
16461;BME280;8341;42.048;24.650;2022-08-02T04:26:33;96967.69;;;22.34;47.15
16461;BME280;8341;42.048;24.650;2022-08-02T04:29:03;96961.78;;;22.30;47.13
16461;BME280;8341;42.048;24.650;2022-08-02T04:31:30;96972.69;;;22.35;47.37
16461;BME280;8341;42.048;24.650;2022-08-02T04:33:57;96958.03;;;22.42;47.50
16461;BME280;8341;42.048;24.650;2022-08-02T04:36:25;96958.03;;;22.50;47.06
16461;BME280;8341;42.048;24.650;2022-08-02T04:38:51;96967.66;;;22.64;46.83
16461;BME280;8341;42.048;24.650;2022-08-02T04:41:18;96960.97;;;22.60;46.29
16461;BME280;8341;42.048;24.650;2022-08-02T04:43:45;96964.47;;;22.75;46.75
16461;BME280;8341;42.048;24.650;2022-08-02T04:46:13;96971.22;;;23.04;46.29
16461;BME280;8341;42.048;24.650;2022-08-02T04:48:40;96965.50;;;23.35;45.36
16461;BME280;8341;42.048;24.650;2022-08-02T04:51:07;96965.00;;;23.61;43.74
16461;BME280;8341;42.048;24.650;2022-08-02T04:53:33;96957.53;;;23.71;43.61
16461;BME280;8341;42.048;24.650;2022-08-02T04:56:00;96971.22;;;23.77;42.82
16461;BME280;8341;42.048;24.650;2022-08-02T04:58:27;96972.97;;;23.89;43.15
16461;BME280;8341;42.048;24.650;2022-08-02T05:00:54;96967.13;;;24.02;43.07
16461;BME280;8341;42.048;24.650;2022-08-02T05:03:22;96965.84;;;24.03;42.82
16461;BME280;8341;42.048;24.650;2022-08-02T05:05:49;96975.66;;;24.04;42.80
16461;BME280;8341;42.048;24.650;2022-08-02T05:08:15;96975.31;;;24.25;41.86
16461;BME280;8341;42.048;24.650;2022-08-02T05:10:43;96977.88;;;24.31;41.92
16461;BME280;8341;42.048;24.650;2022-08-02T05:13:10;96977.88;;;24.48;41.33
16461;BME280;8341;42.048;24.650;2022-08-02T05:15:37;96982.31;;;24.68;41.45
16461;BME280;8341;42.048;24.650;2022-08-02T05:18:04;96983.72;;;24.76;39.89
16461;BME280;8341;42.048;24.650;2022-08-02T05:20:32;96981.88;;;24.79;40.36
16461;BME280;8341;42.048;24.650;2022-08-02T05:22:59;96986.00;;;24.78;40.48
16461;BME280;8341;42.048;24.650;2022-08-02T05:25:27;96987.44;;;24.79;40.11
16461;BME280;8341;42.048;24.650;2022-08-02T05:27:54;96974.69;;;24.68;39.28
16461;BME280;8341;42.048;24.650;2022-08-02T05:30:21;96979.38;;;24.49;40.10
16461;BME280;8341;42.048;24.650;2022-08-02T05:32:49;96983.81;;;24.52;39.65
16461;BME280;8341;42.048;24.650;2022-08-02T05:35:18;96991.75;;;24.55;39.42
16461;BME280;8341;42.048;24.650;2022-08-02T05:37:46;96987.06;;;24.41;38.95
16461;BME280;8341;42.048;24.650;2022-08-02T05:40:13;96983.81;;;24.52;39.03
16461;BME280;8341;42.048;24.650;2022-08-02T05:42:40;96995.88;;;24.71;39.11
16461;BME280;8341;42.048;24.650;2022-08-02T05:45:08;96995.47;;;24.75;39.06
16461;BME280;8341;42.048;24.650;2022-08-02T05:47:35;96987.44;;;24.62;38.97
16461;BME280;8341;42.048;24.650;2022-08-02T05:50:02;96998.41;;;24.77;39.02
16461;BME280;8341;42.048;24.650;2022-08-02T05:52:40;96996.56;;;24.79;39.30
16461;BME280;8341;42.048;24.650;2022-08-02T05:55:15;97000.53;;;24.69;39.13
16461;BME280;8341;42.048;24.650;2022-08-02T05:57:49;96996.78;;;24.57;39.76
16461;BME280;8341;42.048;24.650;2022-08-02T06:00:19;97002.28;;;24.64;39.54
16461;BME280;8341;42.048;24.650;2022-08-02T06:02:58;97005.44;;;24.61;40.47
16461;BME280;8341;42.048;24.650;2022-08-02T06:05:32;97008.91;;;24.52;38.40
16461;BME280;8341;42.048;24.650;2022-08-02T06:08:00;97012.03;;;24.73;39.65
16461;BME280;8341;42.048;24.650;2022-08-02T06:10:29;97015.34;;;24.79;39.84
16461;BME280;8341;42.048;24.650;2022-08-02T06:13:06;97022.78;;;24.76;39.72
16461;BME280;8341;42.048;24.650;2022-08-02T06:15:33;97026.50;;;24.79;39.03
16461;BME280;8341;42.048;24.650;2022-08-02T06:18:01;97029.56;;;24.66;39.79
16461;BME280;8341;42.048;24.650;2022-08-02T06:20:29;97035.03;;;24.81;38.91
16461;BME280;8341;42.048;24.650;2022-08-02T06:23:00;97031.69;;;24.82;39.29
16461;BME280;8341;42.048;24.650;2022-08-02T06:25:33;97026.84;;;24.83;39.52
16461;BME280;8341;42.048;24.650;2022-08-02T06:28:02;97028.66;;;24.88;39.61
16461;BME280;8341;42.048;24.650;2022-08-02T06:30:29;97032.34;;;24.91;39.43
16461;BME280;8341;42.048;24.650;2022-08-02T06:32:57;97030.19;;;24.99;38.94
16461;BME280;8341;42.048;24.650;2022-08-02T06:35:24;97030.53;;;25.03;39.52
16461;BME280;8341;42.048;24.650;2022-08-02T06:37:59;97031.59;;;25.07;39.73
16461;BME280;8341;42.048;24.650;2022-08-02T06:40:30;97028.78;;;25.07;39.34
16461;BME280;8341;42.048;24.650;2022-08-02T06:43:05;97032.47;;;25.10;39.01
16461;BME280;8341;42.048;24.650;2022-08-02T06:45:37;97036.44;;;24.89;38.87
16461;BME280;8341;42.048;24.650;2022-08-02T06:48:05;97032.66;;;24.95;38.57
16461;BME280;8341;42.048;24.650;2022-08-02T06:50:32;97039.41;;;25.09;39.00
16461;BME280;8341;42.048;24.650;2022-08-02T06:52:59;97022.88;;;25.20;38.08
16461;BME280;8341;42.048;24.650;2022-08-02T06:55:26;97021.47;;;25.12;39.12
16461;BME280;8341;42.048;24.650;2022-08-02T06:57:55;97019.59;;;25.14;38.84
16461;BME280;8341;42.048;24.650;2022-08-02T07:00:22;97013.66;;;25.27;38.58
16461;BME280;8341;42.048;24.650;2022-08-02T07:02:49;97021.53;;;25.38;38.06
16461;BME280;8341;42.048;24.650;2022-08-02T07:05:16;97016.63;;;25.46;38.27
16461;BME280;8341;42.048;24.650;2022-08-02T07:07:44;97026.06;;;25.51;37.85
16461;BME280;8341;42.048;24.650;2022-08-02T07:10:11;97017.44;;;25.39;36.76
16461;BME280;8341;42.048;24.650;2022-08-02T07:12:38;97019.22;;;25.62;37.80
16461;BME280;8341;42.048;24.650;2022-08-02T07:15:07;97021.59;;;25.65;37.73
16461;BME280;8341;42.048;24.650;2022-08-02T07:17:37;97016.72;;;25.66;38.16
16461;BME280;8341;42.048;24.650;2022-08-02T07:20:05;97014.66;;;25.66;37.71
16461;BME280;8341;42.048;24.650;2022-08-02T07:22:34;97014.97;;;25.43;37.17
16461;BME280;8341;42.048;24.650;2022-08-02T07:25:01;97017.16;;;25.45;37.48
16461;BME280;8341;42.048;24.650;2022-08-02T07:27:28;97018.56;;;25.54;38.07
16461;BME280;8341;42.048;24.650;2022-08-02T07:29:55;97023.63;;;25.65;37.61
16461;BME280;8341;42.048;24.650;2022-08-02T07:32:26;97020.41;;;25.68;37.88
16461;BME280;8341;42.048;24.650;2022-08-02T07:34:53;97019.31;;;25.81;37.14
16461;BME280;8341;42.048;24.650;2022-08-02T07:37:22;97014.03;;;25.85;37.23
16461;BME280;8341;42.048;24.650;2022-08-02T07:39:49;97023.97;;;26.05;36.48
16461;BME280;8341;42.048;24.650;2022-08-02T07:42:16;97010.31;;;26.09;36.53
16461;BME280;8341;42.048;24.650;2022-08-02T07:44:43;97014.22;;;26.23;36.88
16461;BME280;8341;42.048;24.650;2022-08-02T07:47:10;97003.06;;;26.33;36.29
16461;BME280;8341;42.048;24.650;2022-08-02T07:49:38;97008.09;;;26.53;35.91
16461;BME280;8341;42.048;24.650;2022-08-02T07:52:05;97007.06;;;26.49;34.97
16461;BME280;8341;42.048;24.650;2022-08-02T07:54:32;97002.97;;;26.59;35.86
16461;BME280;8341;42.048;24.650;2022-08-02T07:56:59;97004.75;;;26.55;36.69
16461;BME280;8341;42.048;24.650;2022-08-02T07:59:26;97005.78;;;26.69;36.10
16461;BME280;8341;42.048;24.650;2022-08-02T08:01:53;97014.38;;;26.81;36.88
16461;BME280;8341;42.048;24.650;2022-08-02T08:04:20;97015.53;;;26.97;35.88
16461;BME280;8341;42.048;24.650;2022-08-02T08:06:48;97018.50;;;26.99;35.67
16461;BME280;8341;42.048;24.650;2022-08-02T08:09:17;97022.91;;;27.21;35.82
16461;BME280;8341;42.048;24.650;2022-08-02T08:11:44;97019.06;;;27.26;36.64
16461;BME280;8341;42.048;24.650;2022-08-02T08:14:11;97017.16;;;27.09;35.40
16461;BME280;8341;42.048;24.650;2022-08-02T08:16:38;97025.41;;;26.98;35.90
16461;BME280;8341;42.048;24.650;2022-08-02T08:19:05;97013.06;;;27.01;35.94
16461;BME280;8341;42.048;24.650;2022-08-02T08:21:32;97017.63;;;27.06;35.44
16461;BME280;8341;42.048;24.650;2022-08-02T08:24:01;97026.31;;;27.00;36.29
16461;BME280;8341;42.048;24.650;2022-08-02T08:26:29;97021.16;;;27.16;35.67
16461;BME280;8341;42.048;24.650;2022-08-02T08:28:56;97023.78;;;27.33;35.70
16461;BME280;8341;42.048;24.650;2022-08-02T08:31:23;97030.56;;;27.49;35.92
16461;BME280;8341;42.048;24.650;2022-08-02T08:33:50;97023.78;;;27.52;35.82
16461;BME280;8341;42.048;24.650;2022-08-02T08:36:17;97025.22;;;27.72;35.86
16461;BME280;8341;42.048;24.650;2022-08-02T08:38:46;97027.47;;;27.55;36.07
16461;BME280;8341;42.048;24.650;2022-08-02T08:41:16;97022.38;;;27.82;34.81
16461;BME280;8341;42.048;24.650;2022-08-02T08:43:44;97028.06;;;27.63;35.75
16461;BME280;8341;42.048;24.650;2022-08-02T08:46:20;97030.31;;;27.95;35.79
16461;BME280;8341;42.048;24.650;2022-08-02T08:48:52;97030.22;;;27.83;33.85
16461;BME280;8341;42.048;24.650;2022-08-02T08:51:20;97021.63;;;27.81;34.57
16461;BME280;8341;42.048;24.650;2022-08-02T08:53:48;97031.03;;;27.95;34.63
16461;BME280;8341;42.048;24.650;2022-08-02T08:56:20;97016.59;;;27.89;33.69
16461;BME280;8341;42.048;24.650;2022-08-02T08:58:47;97015.69;;;27.96;33.51
16461;BME280;8341;42.048;24.650;2022-08-02T09:01:15;97020.34;;;28.23;33.78
16461;BME280;8341;42.048;24.650;2022-08-02T09:06:58;97017.81;;;28.27;34.59
16461;BME280;8341;42.048;24.650;2022-08-02T09:09:24;97021.50;;;28.50;34.59
16461;BME280;8341;42.048;24.650;2022-08-02T09:11:52;97006.84;;;28.62;34.54
16461;BME280;8341;42.048;24.650;2022-08-02T09:14:26;97017.66;;;28.55;33.96
16461;BME280;8341;42.048;24.650;2022-08-02T09:17:05;97009.28;;;28.15;32.79
16461;BME280;8341;42.048;24.650;2022-08-02T09:19:32;97005.34;;;28.09;33.69
16461;BME280;8341;42.048;24.650;2022-08-02T09:22:03;97008.72;;;28.38;33.13
16461;BME280;8341;42.048;24.650;2022-08-02T09:24:40;97001.00;;;28.48;32.49
16461;BME280;8341;42.048;24.650;2022-08-02T09:27:14;96989.94;;;28.71;32.82
16461;BME280;8341;42.048;24.650;2022-08-02T09:29:45;96998.44;;;28.83;31.97
16461;BME280;8341;42.048;24.650;2022-08-02T09:32:12;96989.63;;;28.77;32.00
16461;BME280;8341;42.048;24.650;2022-08-02T09:34:46;97001.28;;;28.94;32.48
16461;BME280;8341;42.048;24.650;2022-08-02T09:37:23;96987.44;;;29.08;32.53
16461;BME280;8341;42.048;24.650;2022-08-02T09:39:50;96990.88;;;29.06;33.78
16461;BME280;8341;42.048;24.650;2022-08-02T09:42:19;96991.22;;;29.22;31.53
16461;BME280;8341;42.048;24.650;2022-08-02T09:44:52;96991.50;;;29.38;32.05
16461;BME280;8341;42.048;24.650;2022-08-02T09:47:20;96985.66;;;29.45;31.97
16461;BME280;8341;42.048;24.650;2022-08-02T09:49:47;96983.59;;;29.57;32.40
16461;BME280;8341;42.048;24.650;2022-08-02T09:52:14;96987.50;;;29.64;31.85
16461;BME280;8341;42.048;24.650;2022-08-02T09:54:41;96986.19;;;29.76;31.59
16461;BME280;8341;42.048;24.650;2022-08-02T09:57:08;96993.72;;;29.51;30.97
16461;BME280;8341;42.048;24.650;2022-08-02T09:59:37;96984.19;;;29.44;31.90
16461;BME280;8341;42.048;24.650;2022-08-02T10:02:09;96982.63;;;29.20;32.85
16461;BME280;8341;42.048;24.650;2022-08-02T10:04:37;96970.94;;;29.24;32.20
16461;BME280;8341;42.048;24.650;2022-08-02T10:07:04;96989.91;;;29.46;30.95
16461;BME280;8341;42.048;24.650;2022-08-02T10:09:32;96986.66;;;29.61;30.28
16461;BME280;8341;42.048;24.650;2022-08-02T10:11:59;96992.53;;;29.77;30.81
16461;BME280;8341;42.048;24.650;2022-08-02T10:14:27;96986.97;;;30.00;30.04
16461;BME280;8341;42.048;24.650;2022-08-02T10:16:56;96979.63;;;29.95;31.13
16461;BME280;8341;42.048;24.650;2022-08-02T10:19:23;96988.56;;;30.26;30.80
16461;BME280;8341;42.048;24.650;2022-08-02T10:21:55;96987.84;;;30.38;30.03
16461;BME280;8341;42.048;24.650;2022-08-02T10:24:23;96980.50;;;30.44;29.58
16461;BME280;8341;42.048;24.650;2022-08-02T10:26:53;96976.47;;;30.35;29.42
16461;BME280;8341;42.048;24.650;2022-08-02T10:29:26;96980.75;;;30.36;29.80
16461;BME280;8341;42.048;24.650;2022-08-02T10:31:56;96960.78;;;30.56;29.72
16461;BME280;8341;42.048;24.650;2022-08-02T10:34:30;96976.25;;;30.80;29.88
16461;BME280;8341;42.048;24.650;2022-08-02T10:37:00;96975.19;;;30.62;28.85
16461;BME280;8341;42.048;24.650;2022-08-02T10:39:37;96973.69;;;30.72;28.84
16461;BME280;8341;42.048;24.650;2022-08-02T10:42:04;96983.81;;;30.89;29.17
16461;BME280;8341;42.048;24.650;2022-08-02T10:44:32;96984.75;;;30.68;29.85
16461;BME280;8341;42.048;24.650;2022-08-02T10:47:21;96985.34;;;30.67;30.59
16461;BME280;8341;42.048;24.650;2022-08-02T10:49:50;96986.78;;;30.79;29.98
16461;BME280;8341;42.048;24.650;2022-08-02T10:52:18;96985.38;;;30.55;30.31
16461;BME280;8341;42.048;24.650;2022-08-02T10:54:53;96975.81;;;30.60;29.70
16461;BME280;8341;42.048;24.650;2022-08-02T10:57:22;96979.41;;;30.86;28.97
16461;BME280;8341;42.048;24.650;2022-08-02T10:59:50;96979.31;;;30.84;29.39
16461;BME280;8341;42.048;24.650;2022-08-02T11:02:37;96982.34;;;31.25;28.77
16461;BME280;8341;42.048;24.650;2022-08-02T11:05:07;96977.03;;;31.06;28.23
16461;BME280;8341;42.048;24.650;2022-08-02T11:07:36;96975.31;;;31.12;28.98
16461;BME280;8341;42.048;24.650;2022-08-02T11:10:32;96972.22;;;31.45;29.21
16461;BME280;8341;42.048;24.650;2022-08-02T11:13:08;96969.56;;;31.35;28.47
16461;BME280;8341;42.048;24.650;2022-08-02T11:15:50;96967.47;;;31.61;28.67
16461;BME280;8341;42.048;24.650;2022-08-02T11:18:20;96966.34;;;31.80;28.55
16461;BME280;8341;42.048;24.650;2022-08-02T11:21:19;96967.03;;;31.92;28.19
16461;BME280;8341;42.048;24.650;2022-08-02T11:23:46;96958.13;;;31.97;27.74
16461;BME280;8341;42.048;24.650;2022-08-02T11:26:41;96960.91;;;31.70;27.80
16461;BME280;8341;42.048;24.650;2022-08-02T11:29:08;96943.47;;;31.10;28.26
16461;BME280;8341;42.048;24.650;2022-08-02T11:31:40;96945.88;;;31.66;28.07
16461;BME280;8341;42.048;24.650;2022-08-02T11:34:09;96956.88;;;31.87;27.06
16461;BME280;8341;42.048;24.650;2022-08-02T11:36:46;96957.41;;;31.97;27.35
16461;BME280;8341;42.048;24.650;2022-08-02T11:39:15;96957.16;;;31.66;27.89
16461;BME280;8341;42.048;24.650;2022-08-02T11:41:46;96951.97;;;31.23;28.57
16461;BME280;8341;42.048;24.650;2022-08-02T11:44:13;96942.09;;;30.85;28.55
16461;BME280;8341;42.048;24.650;2022-08-02T11:46:40;96940.09;;;31.00;28.73
16461;BME280;8341;42.048;24.650;2022-08-02T11:49:13;96941.06;;;31.04;29.25
16461;BME280;8341;42.048;24.650;2022-08-02T11:51:56;96938.97;;;31.05;28.44
16461;BME280;8341;42.048;24.650;2022-08-02T11:54:27;96943.16;;;30.92;29.15
16461;BME280;8341;42.048;24.650;2022-08-02T11:56:54;96942.75;;;31.09;29.09
16461;BME280;8341;42.048;24.650;2022-08-02T11:59:21;96939.47;;;31.26;29.53
16461;BME280;8341;42.048;24.650;2022-08-02T12:01:48;96950.56;;;31.36;28.86
16461;BME280;8341;42.048;24.650;2022-08-02T12:04:18;96945.88;;;31.40;27.75
16461;BME280;8341;42.048;24.650;2022-08-02T12:06:56;96945.34;;;31.30;27.56
16461;BME280;8341;42.048;24.650;2022-08-02T12:09:24;96945.47;;;31.07;29.04
16461;BME280;8341;42.048;24.650;2022-08-02T12:11:52;96935.25;;;31.14;29.75
16461;BME280;8341;42.048;24.650;2022-08-02T12:14:19;96939.25;;;31.22;29.62
16461;BME280;8341;42.048;24.650;2022-08-02T12:16:47;96934.81;;;31.44;29.18
16461;BME280;8341;42.048;24.650;2022-08-02T12:19:34;96934.38;;;31.62;29.98
16461;BME280;8341;42.048;24.650;2022-08-02T12:22:09;96934.00;;;31.81;29.30
16461;BME280;8341;42.048;24.650;2022-08-02T12:24:37;96937.00;;;31.85;28.74
16461;BME280;8341;42.048;24.650;2022-08-02T12:27:05;96939.53;;;31.92;29.20
16461;BME280;8341;42.048;24.650;2022-08-02T12:29:33;96937.44;;;31.79;26.82
16461;BME280;8341;42.048;24.650;2022-08-02T12:32:00;96945.16;;;31.92;27.28
16461;BME280;8341;42.048;24.650;2022-08-02T12:34:29;96958.44;;;31.90;27.47
16461;BME280;8341;42.048;24.650;2022-08-02T12:36:59;96937.84;;;31.74;26.61
16461;BME280;8341;42.048;24.650;2022-08-02T12:39:38;96939.84;;;31.85;27.25
16461;BME280;8341;42.048;24.650;2022-08-02T12:42:06;96940.47;;;31.83;27.77
16461;BME280;8341;42.048;24.650;2022-08-02T12:44:36;96939.84;;;31.85;28.83
16461;BME280;8341;42.048;24.650;2022-08-02T12:47:04;96936.56;;;32.02;27.92
16461;BME280;8341;42.048;24.650;2022-08-02T12:49:31;96932.16;;;32.12;27.92
16461;BME280;8341;42.048;24.650;2022-08-02T12:52:00;96934.16;;;32.10;27.30
16461;BME280;8341;42.048;24.650;2022-08-02T12:54:28;96930.09;;;31.74;26.51
16461;BME280;8341;42.048;24.650;2022-08-02T12:56:57;96931.69;;;31.64;26.78
16461;BME280;8341;42.048;24.650;2022-08-02T12:59:34;96931.44;;;31.59;27.23
16461;BME280;8341;42.048;24.650;2022-08-02T13:02:03;96929.25;;;31.58;27.63
16461;BME280;8341;42.048;24.650;2022-08-02T13:04:30;96930.13;;;31.88;27.77
16461;BME280;8341;42.048;24.650;2022-08-02T13:06:57;96927.84;;;31.98;28.55
16461;BME280;8341;42.048;24.650;2022-08-02T13:09:25;96919.38;;;31.98;28.41
16461;BME280;8341;42.048;24.650;2022-08-02T13:11:52;96927.94;;;31.86;27.50
16461;BME280;8341;42.048;24.650;2022-08-02T13:14:19;96925.56;;;31.94;28.78
16461;BME280;8341;42.048;24.650;2022-08-02T13:16:46;96923.34;;;31.79;28.00